sensor_id;sensor_type;location;lat;lon;timestamp;temperature;humidity
27376;DHT22;14844;51.302;6.354;2023-08-06T00:01:26;16.10;99.90
27376;DHT22;14844;51.302;6.354;2023-08-06T00:03:51;16.10;99.90
27376;DHT22;14844;51.302;6.354;2023-08-06T00:06:17;16.10;99.90
27376;DHT22;14844;51.302;6.354;2023-08-06T00:08:42;16.10;99.90
27376;DHT22;14844;51.302;6.354;2023-08-06T00:11:08;16.20;99.90
27376;DHT22;14844;51.302;6.354;2023-08-06T00:13:33;16.10;99.90
27376;DHT22;14844;51.302;6.354;2023-08-06T00:16:08;16.10;99.90
27376;DHT22;14844;51.302;6.354;2023-08-06T00:18:34;16.10;99.90
27376;DHT22;14844;51.302;6.354;2023-08-06T00:20:59;16.00;99.90
27376;DHT22;14844;51.302;6.354;2023-08-06T00:23:25;16.00;99.90
27376;DHT22;14844;51.302;6.354;2023-08-06T00:25:50;16.00;99.90
27376;DHT22;14844;51.302;6.354;2023-08-06T00:28:16;15.90;99.90
27376;DHT22;14844;51.302;6.354;2023-08-06T00:30:41;15.80;99.90
27376;DHT22;14844;51.302;6.354;2023-08-06T00:33:06;15.70;99.90
27376;DHT22;14844;51.302;6.354;2023-08-06T00:35:32;15.70;99.90
27376;DHT22;14844;51.302;6.354;2023-08-06T00:37:57;15.60;99.90
27376;DHT22;14844;51.302;6.354;2023-08-06T00:40:23;15.60;99.90
27376;DHT22;14844;51.302;6.354;2023-08-06T00:42:48;15.50;99.90
27376;DHT22;14844;51.302;6.354;2023-08-06T00:45:14;15.40;99.90
27376;DHT22;14844;51.302;6.354;2023-08-06T00:47:39;15.40;99.90
27376;DHT22;14844;51.302;6.354;2023-08-06T00:50:06;15.40;99.90
27376;DHT22;14844;51.302;6.354;2023-08-06T00:52:32;15.40;99.90
27376;DHT22;14844;51.302;6.354;2023-08-06T00:54:57;15.30;99.90
27376;DHT22;14844;51.302;6.354;2023-08-06T00:57:23;15.40;99.90
27376;DHT22;14844;51.302;6.354;2023-08-06T00:59:49;15.40;99.90
27376;DHT22;14844;51.302;6.354;2023-08-06T01:02:15;15.40;99.90
27376;DHT22;14844;51.302;6.354;2023-08-06T01:04:40;15.40;99.90
27376;DHT22;14844;51.302;6.354;2023-08-06T01:07:21;15.50;99.90
27376;DHT22;14844;51.302;6.354;2023-08-06T01:09:52;15.40;99.90
27376;DHT22;14844;51.302;6.354;2023-08-06T01:15:02;15.50;99.90
27376;DHT22;14844;51.302;6.354;2023-08-06T01:17:31;15.50;99.90
27376;DHT22;14844;51.302;6.354;2023-08-06T01:19:57;15.60;99.90
27376;DHT22;14844;51.302;6.354;2023-08-06T01:22:22;15.50;99.90
27376;DHT22;14844;51.302;6.354;2023-08-06T01:24:48;15.60;99.90
27376;DHT22;14844;51.302;6.354;2023-08-06T01:27:17;15.60;99.90
27376;DHT22;14844;51.302;6.354;2023-08-06T01:29:47;15.60;99.90
27376;DHT22;14844;51.302;6.354;2023-08-06T01:32:14;15.50;99.90
27376;DHT22;14844;51.302;6.354;2023-08-06T01:34:41;15.50;99.90
27376;DHT22;14844;51.302;6.354;2023-08-06T01:37:08;15.50;99.90
27376;DHT22;14844;51.302;6.354;2023-08-06T01:39:33;15.40;99.90
27376;DHT22;14844;51.302;6.354;2023-08-06T01:41:59;15.40;99.90
27376;DHT22;14844;51.302;6.354;2023-08-06T01:44:24;15.50;99.90
27376;DHT22;14844;51.302;6.354;2023-08-06T01:46:50;15.60;99.90
27376;DHT22;14844;51.302;6.354;2023-08-06T01:49:15;15.60;99.90
27376;DHT22;14844;51.302;6.354;2023-08-06T01:51:40;15.60;99.90
27376;DHT22;14844;51.302;6.354;2023-08-06T01:54:06;15.60;99.90
27376;DHT22;14844;51.302;6.354;2023-08-06T01:56:31;15.60;99.90
27376;DHT22;14844;51.302;6.354;2023-08-06T01:58:57;15.60;99.90
27376;DHT22;14844;51.302;6.354;2023-08-06T02:01:22;15.60;99.90
27376;DHT22;14844;51.302;6.354;2023-08-06T02:03:48;15.70;99.90
27376;DHT22;14844;51.302;6.354;2023-08-06T02:06:13;15.60;99.90
27376;DHT22;14844;51.302;6.354;2023-08-06T02:08:39;15.70;99.90
27376;DHT22;14844;51.302;6.354;2023-08-06T02:11:05;15.70;99.90
27376;DHT22;14844;51.302;6.354;2023-08-06T02:13:30;15.70;99.90
27376;DHT22;14844;51.302;6.354;2023-08-06T02:15:55;15.70;99.90
27376;DHT22;14844;51.302;6.354;2023-08-06T02:18:21;15.70;99.90
27376;DHT22;14844;51.302;6.354;2023-08-06T02:20:56;15.70;99.90
27376;DHT22;14844;51.302;6.354;2023-08-06T02:23:25;15.70;99.90
27376;DHT22;14844;51.302;6.354;2023-08-06T02:26:00;15.70;99.90
27376;DHT22;14844;51.302;6.354;2023-08-06T02:28:26;15.70;99.90
27376;DHT22;14844;51.302;6.354;2023-08-06T02:30:52;15.70;99.90
27376;DHT22;14844;51.302;6.354;2023-08-06T02:33:17;15.70;99.90
27376;DHT22;14844;51.302;6.354;2023-08-06T02:35:43;15.70;99.90
27376;DHT22;14844;51.302;6.354;2023-08-06T02:38:08;15.70;99.90
27376;DHT22;14844;51.302;6.354;2023-08-06T02:40:34;15.70;99.90
27376;DHT22;14844;51.302;6.354;2023-08-06T02:42:59;15.60;99.90
27376;DHT22;14844;51.302;6.354;2023-08-06T02:45:24;15.70;99.90
27376;DHT22;14844;51.302;6.354;2023-08-06T02:47:50;15.60;99.90
27376;DHT22;14844;51.302;6.354;2023-08-06T02:50:15;15.60;99.90
27376;DHT22;14844;51.302;6.354;2023-08-06T02:52:41;15.60;99.90
27376;DHT22;14844;51.302;6.354;2023-08-06T02:55:06;15.50;99.90
27376;DHT22;14844;51.302;6.354;2023-08-06T02:57:32;15.50;99.90
27376;DHT22;14844;51.302;6.354;2023-08-06T02:59:57;15.60;99.90
27376;DHT22;14844;51.302;6.354;2023-08-06T03:02:23;15.50;99.90
27376;DHT22;14844;51.302;6.354;2023-08-06T03:04:48;15.50;99.90
27376;DHT22;14844;51.302;6.354;2023-08-06T03:07:14;15.60;99.90
27376;DHT22;14844;51.302;6.354;2023-08-06T03:09:39;15.60;99.90
27376;DHT22;14844;51.302;6.354;2023-08-06T03:12:05;15.60;99.90
27376;DHT22;14844;51.302;6.354;2023-08-06T03:14:30;15.70;99.90
27376;DHT22;14844;51.302;6.354;2023-08-06T03:16:56;15.60;99.90
27376;DHT22;14844;51.302;6.354;2023-08-06T03:19:21;15.60;99.90
27376;DHT22;14844;51.302;6.354;2023-08-06T03:21:47;15.60;99.90
27376;DHT22;14844;51.302;6.354;2023-08-06T03:24:13;15.60;99.90
27376;DHT22;14844;51.302;6.354;2023-08-06T03:26:38;15.60;99.90
27376;DHT22;14844;51.302;6.354;2023-08-06T03:29:04;15.60;99.90
27376;DHT22;14844;51.302;6.354;2023-08-06T03:31:29;15.50;99.90
27376;DHT22;14844;51.302;6.354;2023-08-06T03:33:55;15.50;99.90
27376;DHT22;14844;51.302;6.354;2023-08-06T03:36:20;15.40;99.90
27376;DHT22;14844;51.302;6.354;2023-08-06T03:38:45;15.40;99.90
27376;DHT22;14844;51.302;6.354;2023-08-06T03:41:11;15.30;99.90
27376;DHT22;14844;51.302;6.354;2023-08-06T03:43:36;15.30;99.90
27376;DHT22;14844;51.302;6.354;2023-08-06T03:46:02;15.20;99.90
27376;DHT22;14844;51.302;6.354;2023-08-06T03:48:27;15.20;99.90
27376;DHT22;14844;51.302;6.354;2023-08-06T03:50:53;15.10;99.90
27376;DHT22;14844;51.302;6.354;2023-08-06T03:53:18;15.00;99.90
27376;DHT22;14844;51.302;6.354;2023-08-06T03:55:44;14.90;99.90
27376;DHT22;14844;51.302;6.354;2023-08-06T03:58:09;14.80;99.90
27376;DHT22;14844;51.302;6.354;2023-08-06T04:00:34;14.80;99.90
27376;DHT22;14844;51.302;6.354;2023-08-06T04:03:00;14.80;99.90
27376;DHT22;14844;51.302;6.354;2023-08-06T04:05:25;14.90;99.90
27376;DHT22;14844;51.302;6.354;2023-08-06T04:07:51;14.90;99.90
27376;DHT22;14844;51.302;6.354;2023-08-06T04:10:16;14.90;99.90
27376;DHT22;14844;51.302;6.354;2023-08-06T04:12:42;14.90;99.90
27376;DHT22;14844;51.302;6.354;2023-08-06T04:15:07;15.00;99.90
27376;DHT22;14844;51.302;6.354;2023-08-06T04:17:33;15.10;99.90
27376;DHT22;14844;51.302;6.354;2023-08-06T04:19:58;15.10;99.90
27376;DHT22;14844;51.302;6.354;2023-08-06T04:22:24;15.10;99.90
27376;DHT22;14844;51.302;6.354;2023-08-06T04:24:50;15.00;99.90
27376;DHT22;14844;51.302;6.354;2023-08-06T04:27:15;15.00;99.90
27376;DHT22;14844;51.302;6.354;2023-08-06T04:29:41;15.00;99.90
27376;DHT22;14844;51.302;6.354;2023-08-06T04:32:08;15.00;99.90
27376;DHT22;14844;51.302;6.354;2023-08-06T04:34:34;15.00;99.90
27376;DHT22;14844;51.302;6.354;2023-08-06T04:37:00;15.10;99.90
27376;DHT22;14844;51.302;6.354;2023-08-06T04:39:25;15.10;99.90
27376;DHT22;14844;51.302;6.354;2023-08-06T04:41:51;15.20;99.90
27376;DHT22;14844;51.302;6.354;2023-08-06T04:44:16;15.30;99.90
27376;DHT22;14844;51.302;6.354;2023-08-06T04:46:42;15.40;99.90
27376;DHT22;14844;51.302;6.354;2023-08-06T04:49:07;15.50;99.90
27376;DHT22;14844;51.302;6.354;2023-08-06T04:51:33;15.60;99.90
27376;DHT22;14844;51.302;6.354;2023-08-06T04:53:58;15.80;99.90
27376;DHT22;14844;51.302;6.354;2023-08-06T04:56:24;15.90;99.90
27376;DHT22;14844;51.302;6.354;2023-08-06T04:58:49;16.00;99.90
27376;DHT22;14844;51.302;6.354;2023-08-06T05:01:15;16.10;99.90
27376;DHT22;14844;51.302;6.354;2023-08-06T05:03:41;16.20;99.90
27376;DHT22;14844;51.302;6.354;2023-08-06T05:06:06;16.30;99.90
27376;DHT22;14844;51.302;6.354;2023-08-06T05:08:32;16.40;99.90
27376;DHT22;14844;51.302;6.354;2023-08-06T05:10:57;16.50;99.90
27376;DHT22;14844;51.302;6.354;2023-08-06T05:13:22;16.60;99.90
27376;DHT22;14844;51.302;6.354;2023-08-06T05:15:48;16.70;99.90
27376;DHT22;14844;51.302;6.354;2023-08-06T05:18:14;16.80;99.90
27376;DHT22;14844;51.302;6.354;2023-08-06T05:20:40;16.80;99.90
27376;DHT22;14844;51.302;6.354;2023-08-06T05:23:06;16.90;99.90
27376;DHT22;14844;51.302;6.354;2023-08-06T05:25:31;17.00;99.90
27376;DHT22;14844;51.302;6.354;2023-08-06T05:27:59;17.10;99.90
27376;DHT22;14844;51.302;6.354;2023-08-06T05:30:25;17.30;99.90
27376;DHT22;14844;51.302;6.354;2023-08-06T05:32:50;17.40;99.90
27376;DHT22;14844;51.302;6.354;2023-08-06T05:35:16;17.70;99.90
27376;DHT22;14844;51.302;6.354;2023-08-06T05:37:41;17.80;99.90
27376;DHT22;14844;51.302;6.354;2023-08-06T05:40:07;18.00;99.90
27376;DHT22;14844;51.302;6.354;2023-08-06T05:42:32;18.20;99.90
27376;DHT22;14844;51.302;6.354;2023-08-06T05:44:58;18.30;99.90
27376;DHT22;14844;51.302;6.354;2023-08-06T05:47:23;18.40;99.90
27376;DHT22;14844;51.302;6.354;2023-08-06T05:49:48;18.40;99.90
27376;DHT22;14844;51.302;6.354;2023-08-06T05:52:14;18.40;99.90
27376;DHT22;14844;51.302;6.354;2023-08-06T05:54:39;18.50;99.90
27376;DHT22;14844;51.302;6.354;2023-08-06T05:57:05;18.40;99.90
27376;DHT22;14844;51.302;6.354;2023-08-06T05:59:31;18.50;99.90
27376;DHT22;14844;51.302;6.354;2023-08-06T06:01:56;18.50;99.90
27376;DHT22;14844;51.302;6.354;2023-08-06T06:04:22;18.60;99.90
27376;DHT22;14844;51.302;6.354;2023-08-06T06:06:47;18.70;99.90
27376;DHT22;14844;51.302;6.354;2023-08-06T06:09:13;18.80;99.90
27376;DHT22;14844;51.302;6.354;2023-08-06T06:11:38;18.70;99.90
27376;DHT22;14844;51.302;6.354;2023-08-06T06:14:04;18.80;99.90
27376;DHT22;14844;51.302;6.354;2023-08-06T06:16:30;18.80;99.90
27376;DHT22;14844;51.302;6.354;2023-08-06T06:18:55;18.90;99.90
27376;DHT22;14844;51.302;6.354;2023-08-06T06:21:22;18.80;99.90
27376;DHT22;14844;51.302;6.354;2023-08-06T06:23:48;18.90;99.90
27376;DHT22;14844;51.302;6.354;2023-08-06T06:26:13;19.00;99.90
27376;DHT22;14844;51.302;6.354;2023-08-06T06:28:39;19.00;99.90
27376;DHT22;14844;51.302;6.354;2023-08-06T06:31:04;19.10;99.90
27376;DHT22;14844;51.302;6.354;2023-08-06T06:33:30;19.20;99.90
27376;DHT22;14844;51.302;6.354;2023-08-06T06:35:55;19.30;99.90
27376;DHT22;14844;51.302;6.354;2023-08-06T06:38:20;19.30;99.90
27376;DHT22;14844;51.302;6.354;2023-08-06T06:40:55;19.40;99.90
27376;DHT22;14844;51.302;6.354;2023-08-06T06:43:21;19.60;99.90
27376;DHT22;14844;51.302;6.354;2023-08-06T06:45:47;19.70;99.90
27376;DHT22;14844;51.302;6.354;2023-08-06T06:48:12;19.70;99.90
27376;DHT22;14844;51.302;6.354;2023-08-06T06:50:37;19.80;99.90
27376;DHT22;14844;51.302;6.354;2023-08-06T06:53:04;20.00;99.90
27376;DHT22;14844;51.302;6.354;2023-08-06T06:55:30;20.00;99.90
27376;DHT22;14844;51.302;6.354;2023-08-06T06:57:55;20.20;99.90
27376;DHT22;14844;51.302;6.354;2023-08-06T07:00:20;20.00;99.90
27376;DHT22;14844;51.302;6.354;2023-08-06T07:02:46;20.10;99.90
27376;DHT22;14844;51.302;6.354;2023-08-06T07:05:11;20.30;99.90
27376;DHT22;14844;51.302;6.354;2023-08-06T07:07:37;20.30;99.90
27376;DHT22;14844;51.302;6.354;2023-08-06T07:10:02;20.40;99.90
27376;DHT22;14844;51.302;6.354;2023-08-06T07:12:28;20.50;99.90
27376;DHT22;14844;51.302;6.354;2023-08-06T07:14:53;20.50;99.90
27376;DHT22;14844;51.302;6.354;2023-08-06T07:17:19;20.50;99.90
27376;DHT22;14844;51.302;6.354;2023-08-06T07:19:44;20.50;99.90
27376;DHT22;14844;51.302;6.354;2023-08-06T07:22:10;20.50;99.90
27376;DHT22;14844;51.302;6.354;2023-08-06T07:24:35;20.50;99.90
27376;DHT22;14844;51.302;6.354;2023-08-06T07:27:01;20.40;99.90
27376;DHT22;14844;51.302;6.354;2023-08-06T07:29:26;20.20;99.90
27376;DHT22;14844;51.302;6.354;2023-08-06T07:31:52;20.20;99.90
27376;DHT22;14844;51.302;6.354;2023-08-06T07:34:17;20.20;99.90
27376;DHT22;14844;51.302;6.354;2023-08-06T07:36:44;20.40;99.90
27376;DHT22;14844;51.302;6.354;2023-08-06T07:39:09;20.40;99.90
27376;DHT22;14844;51.302;6.354;2023-08-06T07:41:35;20.30;99.90
27376;DHT22;14844;51.302;6.354;2023-08-06T07:44:01;20.20;99.90
27376;DHT22;14844;51.302;6.354;2023-08-06T07:46:27;20.10;99.90
27376;DHT22;14844;51.302;6.354;2023-08-06T07:48:52;19.80;99.90
27376;DHT22;14844;51.302;6.354;2023-08-06T07:51:18;19.60;99.90
27376;DHT22;14844;51.302;6.354;2023-08-06T07:53:43;19.40;99.90
27376;DHT22;14844;51.302;6.354;2023-08-06T07:56:09;19.10;99.90
27376;DHT22;14844;51.302;6.354;2023-08-06T07:58:35;18.80;99.90
27376;DHT22;14844;51.302;6.354;2023-08-06T08:01:00;18.60;99.90
27376;DHT22;14844;51.302;6.354;2023-08-06T08:03:25;18.30;99.90
27376;DHT22;14844;51.302;6.354;2023-08-06T08:05:53;18.20;99.90
27376;DHT22;14844;51.302;6.354;2023-08-06T08:08:19;18.00;99.90
27376;DHT22;14844;51.302;6.354;2023-08-06T08:10:44;17.50;99.90
27376;DHT22;14844;51.302;6.354;2023-08-06T08:13:12;17.00;99.90
27376;DHT22;14844;51.302;6.354;2023-08-06T08:15:38;16.30;99.90
27376;DHT22;14844;51.302;6.354;2023-08-06T08:18:04;15.90;99.90
27376;DHT22;14844;51.302;6.354;2023-08-06T08:20:29;15.70;99.90
27376;DHT22;14844;51.302;6.354;2023-08-06T08:22:57;15.60;99.90
27376;DHT22;14844;51.302;6.354;2023-08-06T08:25:23;15.60;99.90
27376;DHT22;14844;51.302;6.354;2023-08-06T08:27:48;15.70;99.90
27376;DHT22;14844;51.302;6.354;2023-08-06T08:30:14;15.80;99.90
27376;DHT22;14844;51.302;6.354;2023-08-06T08:32:39;15.80;99.90
27376;DHT22;14844;51.302;6.354;2023-08-06T08:35:05;15.80;99.90
27376;DHT22;14844;51.302;6.354;2023-08-06T08:37:30;16.00;99.90
27376;DHT22;14844;51.302;6.354;2023-08-06T08:39:56;16.00;99.90
27376;DHT22;14844;51.302;6.354;2023-08-06T08:42:21;16.00;99.90
27376;DHT22;14844;51.302;6.354;2023-08-06T08:44:47;16.00;99.90
27376;DHT22;14844;51.302;6.354;2023-08-06T08:47:13;16.10;99.90
27376;DHT22;14844;51.302;6.354;2023-08-06T08:49:38;16.10;99.90
27376;DHT22;14844;51.302;6.354;2023-08-06T08:52:04;16.20;99.90
27376;DHT22;14844;51.302;6.354;2023-08-06T08:54:33;16.50;99.90
27376;DHT22;14844;51.302;6.354;2023-08-06T08:56:59;16.80;99.90
27376;DHT22;14844;51.302;6.354;2023-08-06T08:59:25;16.80;99.90
27376;DHT22;14844;51.302;6.354;2023-08-06T09:01:51;16.90;99.90
27376;DHT22;14844;51.302;6.354;2023-08-06T09:04:17;17.00;99.90
27376;DHT22;14844;51.302;6.354;2023-08-06T09:06:42;16.90;99.90
27376;DHT22;14844;51.302;6.354;2023-08-06T09:09:28;16.90;99.90
27376;DHT22;14844;51.302;6.354;2023-08-06T09:11:55;17.00;99.90
27376;DHT22;14844;51.302;6.354;2023-08-06T09:14:25;17.10;99.90
27376;DHT22;14844;51.302;6.354;2023-08-06T09:16:50;17.20;99.90
27376;DHT22;14844;51.302;6.354;2023-08-06T09:19:16;17.30;99.90
27376;DHT22;14844;51.302;6.354;2023-08-06T09:21:42;17.20;99.90
27376;DHT22;14844;51.302;6.354;2023-08-06T09:24:08;17.10;99.90
27376;DHT22;14844;51.302;6.354;2023-08-06T09:26:34;17.00;99.90
27376;DHT22;14844;51.302;6.354;2023-08-06T09:29:00;16.90;99.90
27376;DHT22;14844;51.302;6.354;2023-08-06T09:31:32;16.60;99.90
27376;DHT22;14844;51.302;6.354;2023-08-06T09:33:59;16.20;99.90
27376;DHT22;14844;51.302;6.354;2023-08-06T09:36:24;15.90;99.90
27376;DHT22;14844;51.302;6.354;2023-08-06T09:38:50;15.50;99.90
27376;DHT22;14844;51.302;6.354;2023-08-06T09:41:25;15.30;99.90
27376;DHT22;14844;51.302;6.354;2023-08-06T09:43:52;15.30;99.90
27376;DHT22;14844;51.302;6.354;2023-08-06T09:46:17;15.30;99.90
27376;DHT22;14844;51.302;6.354;2023-08-06T09:48:46;15.10;99.90
27376;DHT22;14844;51.302;6.354;2023-08-06T09:51:12;15.10;99.90
27376;DHT22;14844;51.302;6.354;2023-08-06T09:53:39;15.00;99.90
27376;DHT22;14844;51.302;6.354;2023-08-06T09:56:11;14.90;99.90
27376;DHT22;14844;51.302;6.354;2023-08-06T09:58:43;14.70;99.90
27376;DHT22;14844;51.302;6.354;2023-08-06T10:01:14;14.60;99.90
27376;DHT22;14844;51.302;6.354;2023-08-06T10:03:44;14.50;99.90
27376;DHT22;14844;51.302;6.354;2023-08-06T10:06:10;14.50;99.90
27376;DHT22;14844;51.302;6.354;2023-08-06T10:11:39;14.30;99.90
27376;DHT22;14844;51.302;6.354;2023-08-06T10:14:11;14.20;99.90
27376;DHT22;14844;51.302;6.354;2023-08-06T10:16:41;14.20;99.90
27376;DHT22;14844;51.302;6.354;2023-08-06T10:19:10;14.10;99.90
27376;DHT22;14844;51.302;6.354;2023-08-06T10:21:46;14.10;99.90
27376;DHT22;14844;51.302;6.354;2023-08-06T10:24:28;14.30;99.90
27376;DHT22;14844;51.302;6.354;2023-08-06T10:27:11;14.40;99.90
27376;DHT22;14844;51.302;6.354;2023-08-06T10:29:38;14.60;99.90
27376;DHT22;14844;51.302;6.354;2023-08-06T10:32:13;14.70;99.90
27376;DHT22;14844;51.302;6.354;2023-08-06T10:37:37;14.80;99.90
27376;DHT22;14844;51.302;6.354;2023-08-06T10:40:04;14.80;99.90
27376;DHT22;14844;51.302;6.354;2023-08-06T10:42:31;14.70;99.90
27376;DHT22;14844;51.302;6.354;2023-08-06T20:30:13;13.00;99.90
27376;DHT22;14844;51.302;6.354;2023-08-06T20:32:39;13.00;99.90
27376;DHT22;14844;51.302;6.354;2023-08-06T20:35:04;13.00;99.90
27376;DHT22;14844;51.302;6.354;2023-08-06T20:37:30;13.00;99.90
27376;DHT22;14844;51.302;6.354;2023-08-06T20:39:55;13.00;99.90
27376;DHT22;14844;51.302;6.354;2023-08-06T20:42:21;13.00;99.90
27376;DHT22;14844;51.302;6.354;2023-08-06T20:44:46;13.00;99.90
27376;DHT22;14844;51.302;6.354;2023-08-06T20:47:12;13.00;99.90
27376;DHT22;14844;51.302;6.354;2023-08-06T20:49:37;13.00;99.90
27376;DHT22;14844;51.302;6.354;2023-08-06T20:52:03;13.10;99.90
27376;DHT22;14844;51.302;6.354;2023-08-06T20:54:28;13.00;99.90
27376;DHT22;14844;51.302;6.354;2023-08-06T20:56:54;13.00;99.90
27376;DHT22;14844;51.302;6.354;2023-08-06T20:59:19;13.10;99.90
27376;DHT22;14844;51.302;6.354;2023-08-06T21:01:45;13.10;99.90
27376;DHT22;14844;51.302;6.354;2023-08-06T21:04:10;13.10;99.90
27376;DHT22;14844;51.302;6.354;2023-08-06T21:06:36;13.00;99.90
27376;DHT22;14844;51.302;6.354;2023-08-06T21:09:01;13.00;99.90
27376;DHT22;14844;51.302;6.354;2023-08-06T21:11:27;13.00;99.90
27376;DHT22;14844;51.302;6.354;2023-08-06T21:13:52;13.00;99.90
27376;DHT22;14844;51.302;6.354;2023-08-06T21:16:18;13.00;99.90
27376;DHT22;14844;51.302;6.354;2023-08-06T21:18:43;13.00;99.90
27376;DHT22;14844;51.302;6.354;2023-08-06T21:21:09;13.00;99.90
27376;DHT22;14844;51.302;6.354;2023-08-06T21:23:34;13.00;99.90
27376;DHT22;14844;51.302;6.354;2023-08-06T21:26:01;13.00;99.90
27376;DHT22;14844;51.302;6.354;2023-08-06T21:28:28;13.00;99.90
27376;DHT22;14844;51.302;6.354;2023-08-06T21:30:54;13.00;99.90
27376;DHT22;14844;51.302;6.354;2023-08-06T21:33:21;13.00;99.90
27376;DHT22;14844;51.302;6.354;2023-08-06T21:35:46;12.90;99.90
27376;DHT22;14844;51.302;6.354;2023-08-06T21:38:12;12.90;99.90
27376;DHT22;14844;51.302;6.354;2023-08-06T21:40:37;13.00;99.90
27376;DHT22;14844;51.302;6.354;2023-08-06T21:43:03;13.00;99.90
27376;DHT22;14844;51.302;6.354;2023-08-06T21:45:28;13.00;99.90
27376;DHT22;14844;51.302;6.354;2023-08-06T21:47:54;13.00;99.90
27376;DHT22;14844;51.302;6.354;2023-08-06T21:50:19;13.00;99.90
27376;DHT22;14844;51.302;6.354;2023-08-06T21:52:45;12.90;99.90
27376;DHT22;14844;51.302;6.354;2023-08-06T21:55:10;12.90;99.90
27376;DHT22;14844;51.302;6.354;2023-08-06T21:57:36;12.90;99.90
27376;DHT22;14844;51.302;6.354;2023-08-06T22:00:02;12.90;99.90
27376;DHT22;14844;51.302;6.354;2023-08-06T22:02:29;12.90;99.90
27376;DHT22;14844;51.302;6.354;2023-08-06T22:04:54;12.90;99.90
27376;DHT22;14844;51.302;6.354;2023-08-06T22:07:20;12.90;99.90
27376;DHT22;14844;51.302;6.354;2023-08-06T22:09:45;12.90;99.90
27376;DHT22;14844;51.302;6.354;2023-08-06T22:12:11;12.80;99.90
27376;DHT22;14844;51.302;6.354;2023-08-06T22:14:36;12.90;99.90
27376;DHT22;14844;51.302;6.354;2023-08-06T22:17:02;12.80;99.90
27376;DHT22;14844;51.302;6.354;2023-08-06T22:19:27;12.80;99.90
27376;DHT22;14844;51.302;6.354;2023-08-06T22:21:53;12.80;99.90
27376;DHT22;14844;51.302;6.354;2023-08-06T22:24:18;12.80;99.90
27376;DHT22;14844;51.302;6.354;2023-08-06T22:26:44;12.90;99.90
27376;DHT22;14844;51.302;6.354;2023-08-06T22:29:09;12.90;99.90
27376;DHT22;14844;51.302;6.354;2023-08-06T22:31:35;12.90;99.90
27376;DHT22;14844;51.302;6.354;2023-08-06T22:34:00;12.90;99.90
27376;DHT22;14844;51.302;6.354;2023-08-06T22:36:25;12.90;99.90
27376;DHT22;14844;51.302;6.354;2023-08-06T22:38:52;12.90;99.90
27376;DHT22;14844;51.302;6.354;2023-08-06T22:41:17;12.90;99.90
27376;DHT22;14844;51.302;6.354;2023-08-06T22:43:43;12.90;99.90
27376;DHT22;14844;51.302;6.354;2023-08-06T22:46:09;13.00;99.90
27376;DHT22;14844;51.302;6.354;2023-08-06T22:48:34;13.00;99.90
27376;DHT22;14844;51.302;6.354;2023-08-06T22:51:00;13.00;99.90
27376;DHT22;14844;51.302;6.354;2023-08-06T22:53:25;13.00;99.90
27376;DHT22;14844;51.302;6.354;2023-08-06T22:55:51;13.00;99.90
27376;DHT22;14844;51.302;6.354;2023-08-06T22:58:16;13.00;99.90
27376;DHT22;14844;51.302;6.354;2023-08-06T23:00:42;13.00;99.90
27376;DHT22;14844;51.302;6.354;2023-08-06T23:03:07;13.00;99.90
27376;DHT22;14844;51.302;6.354;2023-08-06T23:05:32;13.00;99.90
27376;DHT22;14844;51.302;6.354;2023-08-06T23:07:58;13.00;99.90
27376;DHT22;14844;51.302;6.354;2023-08-06T23:10:23;13.00;99.90
27376;DHT22;14844;51.302;6.354;2023-08-06T23:12:49;13.00;99.90
27376;DHT22;14844;51.302;6.354;2023-08-06T23:15:14;13.00;99.90
27376;DHT22;14844;51.302;6.354;2023-08-06T23:17:40;12.90;99.90
27376;DHT22;14844;51.302;6.354;2023-08-06T23:20:06;12.90;99.90
27376;DHT22;14844;51.302;6.354;2023-08-06T23:22:33;12.80;99.90
27376;DHT22;14844;51.302;6.354;2023-08-06T23:25:07;12.70;99.90
27376;DHT22;14844;51.302;6.354;2023-08-06T23:27:37;12.70;99.90
27376;DHT22;14844;51.302;6.354;2023-08-06T23:30:04;12.60;99.90
27376;DHT22;14844;51.302;6.354;2023-08-06T23:32:30;12.60;99.90
27376;DHT22;14844;51.302;6.354;2023-08-06T23:34:57;12.60;99.90
27376;DHT22;14844;51.302;6.354;2023-08-06T23:37:25;12.50;99.90
27376;DHT22;14844;51.302;6.354;2023-08-06T23:40:03;12.50;99.90
27376;DHT22;14844;51.302;6.354;2023-08-06T23:42:30;12.50;99.90
27376;DHT22;14844;51.302;6.354;2023-08-06T23:44:55;12.50;99.90
27376;DHT22;14844;51.302;6.354;2023-08-06T23:47:21;12.50;99.90
27376;DHT22;14844;51.302;6.354;2023-08-06T23:49:46;12.40;99.90
27376;DHT22;14844;51.302;6.354;2023-08-06T23:52:11;12.50;99.90
27376;DHT22;14844;51.302;6.354;2023-08-06T23:54:37;12.40;99.90
27376;DHT22;14844;51.302;6.354;2023-08-06T23:57:05;12.50;99.90
27376;DHT22;14844;51.302;6.354;2023-08-06T23:59:30;12.40;99.90
